createdAt,value
2022-10-30T00:01:31.577Z,34.60
2022-10-30T00:04:43.406Z,31.45
2022-10-30T00:07:55.793Z,36.23
2022-10-30T00:11:15.695Z,36.03
2022-10-30T00:14:27.488Z,33.60
2022-10-30T00:17:39.274Z,33.93
2022-10-30T00:20:51.120Z,38.78
2022-10-30T00:24:03.037Z,36.40
2022-10-30T00:27:14.878Z,35.45
2022-10-30T00:30:26.730Z,32.95
2022-10-30T00:33:41.286Z,36.10
2022-10-30T00:36:52.925Z,34.28
2022-10-30T00:40:04.734Z,33.78
2022-10-30T00:43:39.220Z,35.13
2022-10-30T00:46:51.603Z,34.15
2022-10-30T00:50:09.929Z,38.65
2022-10-30T00:53:25.182Z,36.08
2022-10-30T00:56:37.723Z,36.18
2022-10-30T00:59:50.013Z,37.28
2022-10-30T01:03:03.635Z,33.25
2022-10-30T01:06:20.108Z,36.30
2022-10-30T01:09:32.425Z,39.25
2022-10-30T01:12:45.900Z,35.78
2022-10-30T01:16:08.717Z,37.35
2022-10-30T01:19:29.964Z,38.28
2022-10-30T01:22:53.855Z,40.88
2022-10-30T01:26:14.182Z,34.43
2022-10-30T01:29:42.980Z,34.80
2022-10-30T01:33:07.214Z,34.45
2022-10-30T01:36:24.600Z,34.35
2022-10-30T01:39:41.015Z,39.85
2022-10-30T01:42:56.922Z,31.58
2022-10-30T01:46:34.114Z,34.35
2022-10-30T01:50:21.771Z,35.50
2022-10-30T01:53:44.986Z,36.60
2022-10-30T01:57:06.067Z,30.95
2022-10-30T02:00:21.828Z,32.43
2022-10-30T02:03:34.476Z,32.75
2022-10-30T02:06:47.289Z,32.95
2022-10-30T02:10:00.565Z,34.63
2022-10-30T02:13:13.083Z,34.60
2022-10-30T02:16:27.481Z,33.15
2022-10-30T02:19:39.311Z,35.48
2022-10-30T02:22:56.050Z,34.63
2022-10-30T02:26:05.690Z,36.93
2022-10-30T02:29:21.815Z,32.55
2022-10-30T02:32:35.836Z,34.75
2022-10-30T02:35:48.028Z,34.23
2022-10-30T02:39:00.111Z,38.60
2022-10-30T02:42:12.473Z,43.48
2022-10-30T02:45:24.936Z,34.55
2022-10-30T02:48:37.390Z,34.88
2022-10-30T02:51:49.185Z,33.43
2022-10-30T02:55:00.837Z,35.35
2022-10-30T02:58:13.467Z,37.63
2022-10-30T03:01:26.611Z,38.15
2022-10-30T03:04:40.960Z,37.13
2022-10-30T03:07:52.811Z,40.95
2022-10-30T03:11:10.684Z,34.75
2022-10-30T03:14:22.670Z,39.55
2022-10-30T03:17:34.663Z,37.98
2022-10-30T03:20:46.377Z,39.18
2022-10-30T03:23:59.267Z,43.03
2022-10-30T03:27:12.240Z,36.90
2022-10-30T03:30:24.926Z,45.23
2022-10-30T03:33:38.704Z,37.88
2022-10-30T03:36:50.588Z,37.68
2022-10-30T03:40:02.420Z,36.48
2022-10-30T03:43:15.175Z,39.60
2022-10-30T03:46:27.031Z,37.35
2022-10-30T03:49:40.599Z,38.10
2022-10-30T03:52:54.164Z,32.68
2022-10-30T03:56:08.671Z,33.83
2022-10-30T03:59:22.276Z,35.33
2022-10-30T04:02:42.087Z,39.35
2022-10-30T04:05:54.834Z,37.13
2022-10-30T04:09:06.883Z,36.00
2022-10-30T04:12:20.749Z,33.50
2022-10-30T04:15:34.520Z,36.55
2022-10-30T04:18:46.508Z,38.03
2022-10-30T04:21:58.514Z,39.38
2022-10-30T04:25:11.933Z,36.73
2022-10-30T04:28:25.068Z,32.68
2022-10-30T04:31:36.808Z,35.38
2022-10-30T04:34:49.848Z,40.70
2022-10-30T04:38:03.440Z,41.38
2022-10-30T04:41:16.624Z,36.88
2022-10-30T04:44:33.416Z,38.58
2022-10-30T04:47:45.307Z,35.80
2022-10-30T04:50:57.109Z,36.18
2022-10-30T04:54:10.531Z,38.80
2022-10-30T04:57:22.677Z,40.15
2022-10-30T05:00:36.610Z,37.33
2022-10-30T05:03:53.703Z,37.65
2022-10-30T05:07:04.202Z,39.78
2022-10-30T05:10:19.848Z,39.13
2022-10-30T05:13:32.207Z,40.28
2022-10-30T05:16:44.341Z,43.45
2022-10-30T05:19:56.702Z,38.65
2022-10-30T05:23:08.576Z,43.18
2022-10-30T05:26:21.441Z,38.08
2022-10-30T05:29:33.344Z,40.05
2022-10-30T05:32:45.192Z,34.88
2022-10-30T05:35:57.213Z,34.33
2022-10-30T05:39:09.100Z,37.00
2022-10-30T05:42:22.943Z,34.58
2022-10-30T05:45:34.889Z,34.40
2022-10-30T05:48:47.346Z,34.80
2022-10-30T05:51:59.177Z,36.18
2022-10-30T05:55:14.329Z,36.50
2022-10-30T05:58:40.409Z,37.33
2022-10-30T06:01:52.911Z,38.20
2022-10-30T06:05:04.658Z,33.25
2022-10-30T06:08:17.172Z,31.10
2022-10-30T06:11:30.607Z,35.50
2022-10-30T06:14:44.200Z,32.98
2022-10-30T06:17:56.868Z,33.65
2022-10-30T06:21:11.528Z,33.55
2022-10-30T06:24:25.263Z,32.33
2022-10-30T06:27:41.745Z,26.83
2022-10-30T06:30:53.966Z,30.15
2022-10-30T06:34:06.638Z,34.15
2022-10-30T06:37:20.881Z,29.28
2022-10-30T06:40:33.949Z,30.03
2022-10-30T06:44:07.241Z,32.58
2022-10-30T06:47:21.556Z,33.03
2022-10-30T06:50:33.649Z,34.33
2022-10-30T06:53:45.892Z,31.38
2022-10-30T06:57:11.890Z,27.18
2022-10-30T07:00:29.180Z,25.13
2022-10-30T07:03:49.653Z,28.10
2022-10-30T07:07:01.687Z,27.30
2022-10-30T07:10:15.942Z,31.83
2022-10-30T07:13:31.565Z,30.08
2022-10-30T07:16:51.785Z,27.98
2022-10-30T07:20:03.983Z,27.53
2022-10-30T07:23:16.171Z,24.43
2022-10-30T07:26:29.547Z,27.13
2022-10-30T07:29:43.440Z,27.18
2022-10-30T07:33:07.509Z,28.95
2022-10-30T07:36:24.108Z,25.88
2022-10-30T07:39:38.046Z,23.95
2022-10-30T07:42:51.702Z,27.20
2022-10-30T07:46:11.986Z,22.68
2022-10-30T07:49:39.599Z,25.93
2022-10-30T07:52:54.426Z,25.35
2022-10-30T07:56:08.275Z,24.88
2022-10-30T07:59:50.921Z,24.73
2022-10-30T08:03:21.916Z,23.85
2022-10-30T08:06:38.364Z,19.18
2022-10-30T08:09:50.457Z,22.83
2022-10-30T08:13:03.618Z,19.65
2022-10-30T08:16:18.257Z,23.63
2022-10-30T08:19:30.289Z,23.13
2022-10-30T08:22:52.481Z,20.43
2022-10-30T08:26:06.924Z,23.48
2022-10-30T08:29:20.968Z,20.48
2022-10-30T08:32:33.388Z,21.48
2022-10-30T08:35:59.761Z,19.40
2022-10-30T08:39:11.995Z,20.90
2022-10-30T08:42:29.145Z,23.28
2022-10-30T08:45:42.407Z,20.20
2022-10-30T08:48:56.732Z,21.10
2022-10-30T08:52:10.806Z,19.70
2022-10-30T08:55:24.142Z,19.98
2022-10-30T08:58:36.190Z,21.60
2022-10-30T09:01:50.481Z,21.53
2022-10-30T09:08:35.045Z,17.03
2022-10-30T09:11:58.540Z,18.60
2022-10-30T09:15:13.068Z,17.63
2022-10-30T09:18:27.359Z,17.00
2022-10-30T09:21:41.489Z,19.98
2022-10-30T09:33:08.747Z,18.23
2022-10-30T09:56:46.817Z,18.28
2022-10-30T10:04:47.896Z,18.93
2022-10-30T10:08:04.916Z,18.50
2022-10-30T10:19:07.220Z,34.83
2022-10-30T10:27:17.511Z,17.53
2022-10-30T10:35:24.754Z,15.88
2022-10-30T10:49:25.247Z,23.57
2022-10-30T10:52:44.025Z,21.85
2022-10-30T10:56:01.701Z,16.53
2022-10-30T10:59:20.732Z,28.15
2022-10-30T11:02:47.743Z,18.95
2022-10-30T11:06:04.421Z,17.68
2022-10-30T11:09:23.827Z,15.58
2022-10-30T11:12:40.143Z,15.93
2022-10-30T11:16:01.200Z,23.48
2022-10-30T11:19:15.395Z,19.93
2022-10-30T11:22:33.744Z,11.08
2022-10-30T11:25:45.634Z,13.98
2022-10-30T11:29:00.764Z,15.98
2022-10-30T11:32:16.120Z,15.68
2022-10-30T11:35:28.841Z,15.00
2022-10-30T11:38:40.616Z,13.58
2022-10-30T11:42:02.515Z,15.73
2022-10-30T11:45:21.999Z,16.85
2022-10-30T11:48:38.321Z,13.93
2022-10-30T11:51:52.287Z,17.48
2022-10-30T11:55:09.449Z,15.63
2022-10-30T11:58:46.786Z,14.65
2022-10-30T12:02:27.085Z,17.53
2022-10-30T12:06:02.186Z,18.28
2022-10-30T12:09:21.518Z,24.43
2022-10-30T12:12:41.153Z,16.83
2022-10-30T12:15:58.278Z,11.83
2022-10-30T12:19:30.395Z,19.83
2022-10-30T12:22:42.608Z,16.90
2022-10-30T12:25:58.317Z,22.00
2022-10-30T12:29:17.911Z,16.03
2022-10-30T12:32:38.629Z,17.48
2022-10-30T12:35:55.525Z,16.18
2022-10-30T12:39:13.664Z,18.68
2022-10-30T12:42:26.558Z,16.45
2022-10-30T12:45:44.525Z,17.23
2022-10-30T12:48:59.646Z,19.95
2022-10-30T12:52:17.677Z,20.65
2022-10-30T12:55:35.778Z,19.40
2022-10-30T12:58:54.222Z,20.60
2022-10-30T13:02:15.883Z,21.77
2022-10-30T13:05:39.146Z,18.70
2022-10-30T13:08:59.815Z,15.40
2022-10-30T13:12:16.994Z,17.08
2022-10-30T13:15:34.043Z,17.68
2022-10-30T13:18:45.820Z,16.98
2022-10-30T13:22:04.370Z,18.80
2022-10-30T13:25:23.812Z,21.25
2022-10-30T13:28:42.104Z,17.68
2022-10-30T13:32:06.190Z,19.55
2022-10-30T13:35:30.742Z,21.93
2022-10-30T13:38:50.921Z,33.60
2022-10-30T13:42:19.010Z,19.15
2022-10-30T13:46:04.342Z,18.73
2022-10-30T13:49:30.192Z,24.85
2022-10-30T13:52:47.301Z,19.25
2022-10-30T13:56:01.341Z,17.63
2022-10-30T13:59:50.037Z,23.68
2022-10-30T14:03:43.346Z,15.35
2022-10-30T14:07:00.757Z,18.43
2022-10-30T14:10:18.026Z,15.98
2022-10-30T14:13:36.560Z,21.55
2022-10-30T14:16:51.445Z,17.23
2022-10-30T14:20:33.695Z,21.60
2022-10-30T14:23:45.921Z,13.45
2022-10-30T14:27:02.841Z,15.60
2022-10-30T14:30:25.832Z,14.18
2022-10-30T14:33:51.271Z,14.08
2022-10-30T14:37:03.339Z,23.30
2022-10-30T14:40:49.407Z,24.98
2022-10-30T14:44:44.265Z,22.40
2022-10-30T14:48:02.726Z,29.13
2022-10-30T14:51:22.855Z,32.20
2022-10-30T14:54:41.570Z,27.08
2022-10-30T14:57:57.720Z,17.75
2022-10-30T15:01:41.490Z,17.18
2022-10-30T15:05:15.220Z,17.20
2022-10-30T15:08:56.139Z,17.00
2022-10-30T15:15:39.452Z,15.35
2022-10-30T15:18:55.838Z,19.45
2022-10-30T15:22:07.811Z,17.58
2022-10-30T15:25:26.079Z,28.15
2022-10-30T15:28:40.516Z,29.70
2022-10-30T15:32:03.120Z,21.88
2022-10-30T15:35:24.493Z,18.23
2022-10-30T15:38:36.594Z,21.80
2022-10-30T15:41:53.875Z,16.68
2022-10-30T15:45:05.965Z,20.28
2022-10-30T15:48:26.895Z,22.10
2022-10-30T15:51:41.546Z,22.28
2022-10-30T15:54:58.383Z,24.48
2022-10-30T15:58:13.220Z,24.90
2022-10-30T16:01:38.576Z,19.63
2022-10-30T16:04:51.250Z,18.40
2022-10-30T16:08:06.542Z,17.28
2022-10-30T16:11:21.009Z,27.43
2022-10-30T16:14:36.905Z,19.15
2022-10-30T16:17:53.073Z,18.05
2022-10-30T16:21:07.335Z,18.10
2022-10-30T16:24:21.615Z,30.88
2022-10-30T16:27:33.613Z,18.20
2022-10-30T16:30:46.962Z,20.50
2022-10-30T16:34:00.267Z,23.13
2022-10-30T16:37:17.409Z,20.05
2022-10-30T16:43:44.054Z,24.08
2022-10-30T16:46:58.882Z,18.65
2022-10-30T16:50:15.053Z,25.98
2022-10-30T16:53:30.590Z,27.93
2022-10-30T16:56:45.597Z,29.30
2022-10-30T16:59:58.906Z,23.35
2022-10-30T17:03:15.328Z,20.90
2022-10-30T17:06:44.877Z,22.00
2022-10-30T17:09:59.260Z,17.95
2022-10-30T17:13:37.933Z,20.98
2022-10-30T17:17:00.144Z,20.20
2022-10-30T17:20:31.571Z,18.10
2022-10-30T17:23:49.903Z,23.78
2022-10-30T17:27:05.869Z,24.70
2022-10-30T17:30:48.501Z,19.27
2022-10-30T17:34:23.933Z,24.03
2022-10-30T17:37:36.234Z,27.55
2022-10-30T17:40:48.048Z,28.45
2022-10-30T17:44:02.486Z,25.38
2022-10-30T17:47:23.743Z,20.18
2022-10-30T17:50:35.627Z,22.20
2022-10-30T17:53:48.293Z,22.55
2022-10-30T17:57:01.041Z,19.05
2022-10-30T18:00:17.111Z,19.28
2022-10-30T18:03:29.362Z,19.88
2022-10-30T18:06:41.465Z,19.98
2022-10-30T18:09:53.980Z,20.43
2022-10-30T18:13:06.592Z,16.70
2022-10-30T18:16:20.469Z,17.93
2022-10-30T18:19:32.745Z,18.85
2022-10-30T18:22:44.958Z,22.90
2022-10-30T18:25:57.520Z,26.98
2022-10-30T18:29:09.772Z,23.48
2022-10-30T18:32:22.420Z,21.13
2022-10-30T18:35:39.702Z,23.23
2022-10-30T18:38:52.860Z,22.53
2022-10-30T18:42:05.118Z,22.35
2022-10-30T18:45:30.130Z,20.23
2022-10-30T18:48:42.357Z,23.40
2022-10-30T18:51:56.000Z,25.63
2022-10-30T18:55:09.883Z,25.10
2022-10-30T18:58:21.859Z,24.68
2022-10-30T19:01:35.025Z,35.60
2022-10-30T19:04:47.288Z,30.73
2022-10-30T19:07:59.963Z,27.28
2022-10-30T19:11:13.869Z,23.08
2022-10-30T19:14:26.017Z,29.05
2022-10-30T19:17:38.079Z,34.03
2022-10-30T19:21:04.045Z,23.70
2022-10-30T19:24:07.277Z,22.25
2022-10-30T19:27:21.182Z,27.38
2022-10-30T19:30:33.664Z,21.03
2022-10-30T19:33:45.927Z,20.98
2022-10-30T19:36:58.287Z,22.58
2022-10-30T19:40:37.656Z,20.93
2022-10-30T19:43:49.775Z,25.68
2022-10-30T19:47:01.815Z,28.58
2022-10-30T19:50:29.526Z,28.73
2022-10-30T19:53:41.439Z,29.43
2022-10-30T19:56:53.211Z,33.90
2022-10-30T20:00:05.231Z,27.08
2022-10-30T20:03:19.495Z,23.98
2022-10-30T20:06:31.289Z,28.08
2022-10-30T20:09:43.075Z,25.43
2022-10-30T20:12:56.946Z,22.90
2022-10-30T20:16:10.141Z,27.75
2022-10-30T20:19:33.590Z,33.13
2022-10-30T20:22:45.824Z,27.23
2022-10-30T20:26:02.030Z,29.15
2022-10-30T20:29:14.241Z,23.58
2022-10-30T20:32:26.206Z,25.08
2022-10-30T20:35:38.042Z,26.83
2022-10-30T20:38:50.012Z,27.55
2022-10-30T20:42:02.055Z,24.55
2022-10-30T20:45:21.385Z,27.18
2022-10-30T20:48:33.920Z,19.95
2022-10-30T20:51:45.964Z,24.45
2022-10-30T20:54:57.962Z,23.50
2022-10-30T20:58:10.357Z,26.13
2022-10-30T21:01:22.484Z,28.30
2022-10-30T21:04:34.514Z,21.75
2022-10-30T21:07:46.566Z,22.70
2022-10-30T21:10:58.553Z,24.63
2022-10-30T21:14:10.321Z,20.30
2022-10-30T21:17:22.115Z,19.83
2022-10-30T21:20:34.163Z,24.80
2022-10-30T21:23:46.072Z,18.93
2022-10-30T21:26:58.159Z,29.73
2022-10-30T21:30:12.175Z,43.80
2022-10-30T21:33:24.118Z,38.98
2022-10-30T21:36:35.919Z,32.85
2022-10-30T21:39:47.605Z,24.63
2022-10-30T21:43:03.040Z,23.05
2022-10-30T21:46:15.564Z,22.53
2022-10-30T21:49:30.122Z,23.63
2022-10-30T21:52:41.945Z,22.35
2022-10-30T21:55:53.698Z,24.38
2022-10-30T21:59:06.804Z,29.88
2022-10-30T22:02:21.857Z,28.38
2022-10-30T22:05:35.716Z,30.40
2022-10-30T22:08:50.423Z,41.48
2022-10-30T22:12:02.493Z,30.85
2022-10-30T22:15:16.371Z,36.95
2022-10-30T22:18:29.399Z,34.40
2022-10-30T22:21:41.187Z,38.70
2022-10-30T22:24:53.082Z,45.40
2022-10-30T22:28:04.944Z,47.13
2022-10-30T22:31:19.878Z,44.35
2022-10-30T22:34:31.653Z,51.53
2022-10-30T22:37:43.275Z,41.53
2022-10-30T22:40:54.880Z,43.83
2022-10-30T22:44:10.639Z,47.13
2022-10-30T22:47:22.337Z,45.43
2022-10-30T22:50:33.964Z,47.75
2022-10-30T22:53:46.286Z,47.20
2022-10-30T22:57:00.569Z,57.00
2022-10-30T23:00:19.147Z,50.18
2022-10-30T23:03:30.132Z,50.05
2022-10-30T23:06:42.412Z,59.78
2022-10-30T23:09:54.163Z,56.68
2022-10-30T23:13:05.815Z,53.73
2022-10-30T23:16:22.437Z,53.28
2022-10-30T23:19:35.287Z,54.60
2022-10-30T23:22:47.077Z,53.45
2022-10-30T23:25:58.856Z,54.18
2022-10-30T23:29:11.416Z,52.85
2022-10-30T23:32:23.149Z,47.43
2022-10-30T23:35:34.781Z,50.78
2022-10-30T23:38:46.570Z,47.53
2022-10-30T23:41:58.333Z,51.80
2022-10-30T23:45:11.177Z,57.98
2022-10-30T23:48:23.016Z,56.63
2022-10-30T23:51:34.789Z,53.10
2022-10-30T23:54:46.888Z,46.28
2022-10-30T23:57:59.020Z,51.98
